Time;durP1;ratioP1;P1;durP2;ratioP2;P2;SDS_P1;SDS_P2;PMS_P1;PMS_P2;Temp;Humidity;BMP_temperature;BMP_pressure;BME280_temperature;BME280_humidity;BME280_pressure;Samples;Min_cycle;Max_cycle;Signal;HPM_P1;HPM_P2
2021/01/20 00:00:29;;;;;;;1.87;1.77;;;7.00;99.90;;;;;;5084049;28;20453;-71
2021/01/20 00:02:56;;;;;;;2.40;1.80;;;6.90;99.90;;;;;;5076109;28;20467;-71
2021/01/20 00:05:23;;;;;;;10.13;4.03;;;7.00;99.90;;;;;;5071688;28;21439;-72
2021/01/20 00:07:49;;;;;;;3.13;2.87;;;7.00;99.90;;;;;;5070301;28;20529;-71
2021/01/20 00:10:16;;;;;;;6.07;2.03;;;7.10;99.90;;;;;;5078045;28;20532;-71
2021/01/20 00:12:45;;;;;;;2.70;1.90;;;7.10;99.90;;;;;;5072500;28;20996;-71
2021/01/20 00:15:14;;;;;;;8.30;4.03;;;7.10;99.90;;;;;;5074900;28;20458;-71
2021/01/20 00:17:41;;;;;;;4.03;1.63;;;7.10;99.90;;;;;;5080578;28;20542;-71
2021/01/20 00:20:09;;;;;;;3.30;1.90;;;7.00;99.90;;;;;;5069825;28;20484;-71
2021/01/20 00:22:36;;;;;;;2.40;2.20;;;7.00;99.90;;;;;;5071344;28;21559;-71
2021/01/20 00:25:03;;;;;;;1.77;1.40;;;7.00;99.90;;;;;;5072081;28;20950;-71
2021/01/20 00:27:29;;;;;;;4.73;1.40;;;7.10;99.90;;;;;;5076089;28;21698;-71
2021/01/20 00:29:56;;;;;;;2.87;2.67;;;7.10;99.90;;;;;;5071343;28;20560;-71
2021/01/20 00:32:23;;;;;;;2.80;2.37;;;7.00;99.90;;;;;;5071693;28;20475;-72
2021/01/20 00:34:50;;;;;;;2.20;1.40;;;7.00;99.90;;;;;;5072755;28;20444;-71
2021/01/20 00:37:17;;;;;;;7.33;2.53;;;7.00;99.90;;;;;;5075005;28;20558;-70
2021/01/20 00:39:43;;;;;;;1.40;1.30;;;7.00;99.90;;;;;;5074855;28;20547;-71
2021/01/20 00:42:10;;;;;;;3.37;2.00;;;7.10;99.90;;;;;;5070315;28;20987;-70
2021/01/20 00:44:37;;;;;;;1.57;0.80;;;7.00;99.90;;;;;;5075386;28;20484;-70
2021/01/20 00:47:03;;;;;;;2.13;1.80;;;7.00;99.90;;;;;;5070422;28;20476;-71
2021/01/20 00:49:30;;;;;;;3.17;2.37;;;7.00;99.90;;;;;;5071733;28;20964;-71
2021/01/20 00:51:57;;;;;;;3.70;1.90;;;7.00;99.90;;;;;;5068016;28;20490;-71
2021/01/20 00:54:24;;;;;;;1.17;1.03;;;7.00;99.90;;;;;;5073814;28;20554;-71
2021/01/20 00:56:51;;;;;;;1.80;1.70;;;7.00;99.90;;;;;;5079512;28;20485;-71
2021/01/20 00:59:17;;;;;;;3.50;2.03;;;7.10;99.90;;;;;;5072927;28;20470;-71
2021/01/20 01:01:44;;;;;;;1.73;1.30;;;7.00;99.90;;;;;;5074981;28;20435;-71
2021/01/20 01:04:10;;;;;;;8.10;2.23;;;7.00;99.90;;;;;;5066705;28;20480;-71
2021/01/20 01:06:38;;;;;;;2.00;1.70;;;7.00;99.90;;;;;;5069997;28;20446;-71
2021/01/20 01:09:06;;;;;;;3.23;3.03;;;7.00;99.90;;;;;;5075021;28;20558;-70
2021/01/20 01:11:33;;;;;;;4.60;2.33;;;6.80;99.90;;;;;;5073032;28;20492;-71
2021/01/20 01:14:00;;;;;;;1.47;1.10;;;6.80;99.90;;;;;;5068183;28;20576;-71
2021/01/20 01:16:26;;;;;;;2.50;1.83;;;6.80;99.90;;;;;;5058882;28;20509;-71
2021/01/20 01:18:53;;;;;;;3.60;2.10;;;6.80;99.90;;;;;;5061739;28;20547;-71
2021/01/20 01:21:20;;;;;;;3.40;3.10;;;6.70;99.90;;;;;;5077150;28;20465;-71
2021/01/20 01:23:46;;;;;;;4.20;2.20;;;6.80;99.90;;;;;;5056339;28;20457;-71
2021/01/20 01:26:14;;;;;;;2.77;1.80;;;6.80;99.90;;;;;;5074273;28;20486;-71
2021/01/20 01:28:42;;;;;;;1.73;1.47;;;6.80;99.90;;;;;;5075154;28;20913;-71
2021/01/20 01:31:10;;;;;;;2.80;1.17;;;6.90;99.90;;;;;;5053436;28;20420;-71
2021/01/20 01:33:37;;;;;;;2.23;2.03;;;6.80;99.90;;;;;;5078075;28;20566;-71
2021/01/20 01:36:04;;;;;;;3.87;2.17;;;6.90;99.90;;;;;;5075999;28;20554;-69
2021/01/20 01:38:30;;;;;;;2.03;1.90;;;6.90;99.90;;;;;;5078313;28;21321;-71
2021/01/20 01:40:57;;;;;;;3.10;2.50;;;6.90;99.90;;;;;;5072603;28;20498;-71
2021/01/20 01:43:24;;;;;;;2.43;2.07;;;6.90;99.90;;;;;;5066698;28;20424;-72
2021/01/20 01:45:51;;;;;;;3.27;1.60;;;6.90;99.90;;;;;;5068215;28;21108;-70
2021/01/20 01:48:18;;;;;;;5.03;1.90;;;7.00;99.90;;;;;;5069696;28;20530;-71
2021/01/20 01:50:47;;;;;;;1.60;1.20;;;6.90;99.90;;;;;;5079172;28;20543;-71
2021/01/20 01:53:14;;;;;;;2.70;1.63;;;6.90;99.90;;;;;;5074525;28;20567;-71
2021/01/20 01:55:41;;;;;;;2.97;2.33;;;6.90;99.90;;;;;;5072943;28;20534;-72
2021/01/20 01:58:08;;;;;;;2.73;2.47;;;6.80;99.90;;;;;;5076319;28;20494;-71
2021/01/20 02:00:35;;;;;;;1.90;1.37;;;6.80;99.90;;;;;;5072378;28;20489;-71
2021/01/20 02:03:02;;;;;;;4.10;2.57;;;6.80;99.90;;;;;;5072651;28;20873;-71
2021/01/20 02:05:29;;;;;;;1.40;1.30;;;6.80;99.90;;;;;;5071711;28;21118;-71
2021/01/20 02:07:57;;;;;;;3.30;1.63;;;6.90;99.90;;;;;;5071518;28;20486;-71
2021/01/20 02:10:23;;;;;;;3.50;2.77;;;6.90;99.90;;;;;;5065419;28;20493;-71
2021/01/20 02:13:03;;;;;;;2.57;2.37;;;6.90;99.90;;;;;;5072349;28;20640;-71
2021/01/20 02:15:41;;;;;;;3.83;2.37;;;6.90;99.90;;;;;;5066994;28;20477;-71
2021/01/20 02:18:13;;;;;;;2.97;1.50;;;6.90;99.90;;;;;;5076079;28;20445;-72
2021/01/20 02:21:06;;;;;;;1.53;1.43;;;7.00;99.90;;;;;;5070322;28;20944;-72
2021/01/20 02:23:38;;;;;;;7.00;3.40;;;7.10;99.90;;;;;;5070794;28;20436;-71
2021/01/20 02:26:23;;;;;;;3.23;2.07;;;7.10;99.90;;;;;;5077882;28;20458;-71
2021/01/20 02:29:10;;;;;;;1.87;1.57;;;7.20;99.90;;;;;;5072490;28;20481;-72
2021/01/20 02:31:40;;;;;;;1.90;1.70;;;7.20;99.90;;;;;;5067335;28;20489;-71
2021/01/20 02:34:12;;;;;;;6.70;2.50;;;7.20;99.90;;;;;;5073243;28;20494;-71
2021/01/20 02:36:40;;;;;;;3.40;2.20;;;7.30;99.90;;;;;;5073048;28;20601;-71
2021/01/20 02:39:07;;;;;;;1.43;1.33;;;7.30;99.90;;;;;;5073486;28;20972;-72
2021/01/20 02:41:34;;;;;;;1.90;1.80;;;7.40;99.90;;;;;;5075865;28;20587;-71
2021/01/20 02:44:01;;;;;;;1.33;1.23;;;7.40;99.90;;;;;;5072848;28;20532;-71
2021/01/20 02:46:28;;;;;;;3.27;3.00;;;7.40;99.90;;;;;;5077011;28;20546;-71
2021/01/20 02:48:56;;;;;;;6.90;1.97;;;7.40;99.90;;;;;;5070967;28;20606;-71
2021/01/20 02:51:28;;;;;;;4.13;1.77;;;7.50;99.90;;;;;;5072838;28;21015;-72
2021/01/20 02:54:00;;;;;;;3.63;1.93;;;7.50;99.90;;;;;;5072346;28;20942;-70
2021/01/20 02:56:28;;;;;;;1.97;1.50;;;7.50;99.90;;;;;;5069288;28;20482;-71
2021/01/20 02:58:55;;;;;;;6.60;2.10;;;7.60;99.90;;;;;;5077476;28;20560;-70
2021/01/20 03:01:24;;;;;;;1.50;1.27;;;7.60;99.90;;;;;;5074047;28;20587;-70
2021/01/20 03:03:51;;;;;;;2.47;1.30;;;7.70;99.90;;;;;;5074908;28;20669;-70
2021/01/20 03:06:20;;;;;;;3.57;2.70;;;7.70;99.90;;;;;;5071117;28;20946;-71
2021/01/20 03:08:48;;;;;;;1.90;1.70;;;7.70;99.90;;;;;;5075254;28;20940;-71
2021/01/20 03:11:15;;;;;;;1.83;1.40;;;7.70;99.90;;;;;;5079642;28;20485;-71
2021/01/20 03:13:43;;;;;;;1.77;1.67;;;7.70;99.90;;;;;;5073319;28;20488;-71
2021/01/20 03:16:10;;;;;;;2.60;1.50;;;7.70;99.90;;;;;;5074351;28;20948;-71
2021/01/20 03:18:37;;;;;;;3.40;2.30;;;7.80;99.90;;;;;;5073486;28;20565;-71
2021/01/20 03:21:04;;;;;;;3.70;1.60;;;7.80;99.90;;;;;;5078916;28;20492;-71
2021/01/20 03:23:31;;;;;;;5.47;1.37;;;7.80;99.90;;;;;;5077583;28;20914;-71
2021/01/20 03:25:58;;;;;;;4.23;2.53;;;7.80;99.90;;;;;;5078200;28;20493;-71
2021/01/20 03:28:25;;;;;;;3.90;2.40;;;7.80;99.90;;;;;;5075960;28;20474;-72
2021/01/20 03:30:51;;;;;;;1.80;1.70;;;7.80;99.90;;;;;;5072564;28;20508;-71
2021/01/20 03:33:18;;;;;;;1.70;1.13;;;7.90;99.90;;;;;;5071531;28;20505;-72
2021/01/20 03:35:45;;;;;;;3.90;1.67;;;7.90;99.90;;;;;;5076980;28;20583;-72
2021/01/20 03:38:11;;;;;;;3.57;2.57;;;7.90;99.90;;;;;;5078912;28;21112;-71
2021/01/20 03:40:39;;;;;;;2.30;2.10;;;7.90;99.90;;;;;;5076596;28;20432;-70
2021/01/20 03:43:06;;;;;;;2.97;1.60;;;7.90;99.90;;;;;;5085635;28;20522;-71
2021/01/20 03:45:32;;;;;;;3.73;1.87;;;7.90;99.90;;;;;;5068360;28;20595;-71
2021/01/20 03:47:59;;;;;;;2.93;2.00;;;7.90;99.90;;;;;;5073770;28;20469;-71
2021/01/20 03:50:26;;;;;;;4.50;2.03;;;7.90;99.90;;;;;;5073073;28;20473;-71
2021/01/20 03:52:52;;;;;;;2.53;1.90;;;7.90;99.90;;;;;;5072640;28;20952;-71
2021/01/20 03:55:19;;;;;;;1.93;1.83;;;7.90;99.90;;;;;;5068323;28;20469;-71
2021/01/20 03:57:46;;;;;;;2.07;1.37;;;7.90;99.90;;;;;;5074909;28;21056;-71
2021/01/20 04:00:15;;;;;;;3.63;2.33;;;7.90;99.90;;;;;;5080149;28;20484;-72
2021/01/20 04:02:41;;;;;;;1.43;1.17;;;7.90;99.90;;;;;;5079492;28;20481;-71
2021/01/20 04:05:09;;;;;;;1.73;1.47;;;7.80;99.90;;;;;;5072261;28;20477;-71
2021/01/20 04:07:36;;;;;;;1.33;1.23;;;7.80;99.90;;;;;;5072325;28;20540;-71
2021/01/20 04:10:07;;;;;;;2.37;2.17;;;7.90;99.90;;;;;;5075866;28;21618;-72
2021/01/20 04:12:34;;;;;;;3.30;1.60;;;7.90;99.90;;;;;;5075253;28;20965;-71
2021/01/20 04:15:02;;;;;;;2.53;2.33;;;7.90;99.90;;;;;;5078381;28;20493;-71
2021/01/20 04:17:29;;;;;;;2.90;2.10;;;7.90;99.90;;;;;;5074433;28;20568;-71
2021/01/20 04:19:55;;;;;;;2.10;1.53;;;8.00;99.90;;;;;;5079941;28;20492;-72
2021/01/20 04:22:22;;;;;;;1.50;1.40;;;8.00;99.90;;;;;;5069836;28;20468;-71
2021/01/20 04:24:49;;;;;;;1.50;1.40;;;8.00;99.90;;;;;;5076675;28;20539;-72
2021/01/20 04:27:15;;;;;;;2.30;1.87;;;8.00;99.90;;;;;;5069652;28;20603;-72
2021/01/20 04:29:42;;;;;;;2.00;1.80;;;8.00;99.90;;;;;;5069316;28;20536;-72
2021/01/20 04:32:10;;;;;;;1.47;1.07;;;8.00;99.90;;;;;;5074885;28;20485;-72
2021/01/20 04:34:37;;;;;;;3.07;2.23;;;8.10;99.90;;;;;;5072721;28;20498;-71
2021/01/20 04:37:04;;;;;;;2.33;1.60;;;8.10;99.90;;;;;;5073212;28;20474;-71
2021/01/20 04:39:30;;;;;;;1.67;1.57;;;8.10;99.90;;;;;;5070703;28;20548;-72
2021/01/20 04:41:58;;;;;;;2.60;2.30;;;8.10;99.90;;;;;;5082084;28;21023;-72
2021/01/20 04:44:26;;;;;;;6.83;2.17;;;8.10;99.90;;;;;;5077119;28;20515;-72
2021/01/20 04:46:53;;;;;;;1.77;1.53;;;8.20;99.90;;;;;;5066412;28;20437;-70
2021/01/20 04:49:21;;;;;;;1.17;1.00;;;8.20;99.90;;;;;;5082302;28;20442;-70
2021/01/20 04:51:50;;;;;;;3.53;2.17;;;8.10;99.90;;;;;;5076718;28;20496;-72
2021/01/20 04:54:17;;;;;;;3.43;1.67;;;8.20;99.90;;;;;;5076008;28;20523;-71
2021/01/20 04:56:46;;;;;;;12.37;2.10;;;8.30;99.90;;;;;;5068372;28;20773;-72
2021/01/20 04:59:13;;;;;;;2.57;1.70;;;8.20;99.90;;;;;;5069659;28;20564;-72
2021/01/20 05:01:41;;;;;;;4.70;2.00;;;8.20;99.90;;;;;;5075517;28;20452;-72
2021/01/20 05:04:10;;;;;;;2.00;1.60;;;8.20;99.90;;;;;;5074013;28;20838;-72
2021/01/20 05:06:37;;;;;;;2.20;1.90;;;8.20;99.90;;;;;;5072260;28;20606;-72
2021/01/20 05:09:04;;;;;;;2.63;2.43;;;8.20;99.90;;;;;;5078735;28;20552;-72
2021/01/20 05:11:40;;;;;;;1.90;1.50;;;8.20;99.90;;;;;;5075060;28;20445;-71
2021/01/20 05:14:12;;;;;;;2.53;1.10;;;8.10;99.90;;;;;;5073633;28;20549;-72
2021/01/20 05:16:39;;;;;;;2.30;2.10;;;8.20;99.90;;;;;;5078626;28;20453;-72
2021/01/20 05:19:05;;;;;;;3.00;2.37;;;8.10;99.90;;;;;;5078077;28;20472;-72
2021/01/20 05:21:32;;;;;;;1.40;1.30;;;8.10;99.90;;;;;;5078572;28;20811;-72
2021/01/20 05:24:20;;;;;;;2.63;2.27;;;8.10;99.90;;;;;;5076104;28;20545;-71
2021/01/20 05:26:47;;;;;;;2.53;2.30;;;8.10;99.90;;;;;;5074255;28;20453;-72
2021/01/20 05:29:14;;;;;;;2.27;2.07;;;8.00;99.90;;;;;;5071395;28;20492;-70
2021/01/20 05:31:41;;;;;;;5.00;1.33;;;8.00;99.90;;;;;;5080407;28;20523;-72
2021/01/20 05:34:22;;;;;;;3.93;2.00;;;7.90;99.90;;;;;;5069823;28;20494;-72
2021/01/20 05:37:01;;;;;;;2.53;1.80;;;7.80;99.90;;;;;;5084304;28;20497;-72
2021/01/20 05:39:29;;;;;;;1.20;1.10;;;7.80;99.90;;;;;;5073684;28;20465;-72
2021/01/20 05:42:04;;;;;;;2.80;2.07;;;7.80;99.90;;;;;;5074366;28;20518;-72
2021/01/20 05:44:30;;;;;;;2.30;1.73;;;7.80;99.90;;;;;;5066716;28;20935;-72
2021/01/20 05:46:57;;;;;;;2.03;1.47;;;7.70;99.90;;;;;;5074560;28;20527;-71
2021/01/20 05:49:26;;;;;;;1.87;1.77;;;7.70;99.90;;;;;;5064474;28;20489;-71
2021/01/20 05:51:53;;;;;;;5.40;1.80;;;7.70;99.90;;;;;;5073398;28;20451;-72
2021/01/20 05:54:35;;;;;;;3.20;1.73;;;7.60;99.90;;;;;;5066447;28;20579;-71
2021/01/20 05:57:12;;;;;;;1.80;1.67;;;7.60;99.90;;;;;;5070635;28;20476;-71
2021/01/20 05:59:39;;;;;;;3.60;3.17;;;7.60;99.90;;;;;;5072686;28;20452;-72
2021/01/20 06:02:23;;;;;;;2.00;1.77;;;7.60;99.90;;;;;;5075407;28;20449;-72
2021/01/20 06:04:52;;;;;;;1.33;1.07;;;7.50;99.90;;;;;;5073092;28;20435;-72
2021/01/20 06:07:18;;;;;;;6.20;2.80;;;7.60;99.90;;;;;;5072693;28;20516;-71
2021/01/20 06:09:47;;;;;;;1.50;1.23;;;7.60;99.90;;;;;;5075293;28;20490;-72
2021/01/20 06:12:15;;;;;;;2.10;2.00;;;7.60;99.90;;;;;;5077652;28;20472;-71
2021/01/20 06:14:43;;;;;;;3.63;1.90;;;7.60;99.90;;;;;;5075908;28;20445;-72
2021/01/20 06:17:14;;;;;;;1.50;1.20;;;7.70;99.90;;;;;;5080589;28;20477;-71
2021/01/20 06:19:47;;;;;;;2.03;1.70;;;7.70;99.90;;;;;;5081841;28;20424;-71
2021/01/20 06:22:16;;;;;;;1.30;1.20;;;7.80;99.90;;;;;;5074308;28;20462;-70
2021/01/20 06:24:47;;;;;;;3.80;1.70;;;7.90;99.90;;;;;;5077506;28;20433;-72
2021/01/20 06:27:22;;;;;;;3.13;2.33;;;7.80;99.90;;;;;;5077710;28;20567;-72
2021/01/20 06:29:54;;;;;;;2.80;2.40;;;7.90;99.90;;;;;;5079541;28;20579;-70
2021/01/20 06:32:24;;;;;;;2.00;1.70;;;8.10;99.90;;;;;;5081894;28;20925;-72
2021/01/20 06:34:53;;;;;;;1.50;1.30;;;8.10;99.90;;;;;;5075885;28;20530;-71
2021/01/20 06:37:39;;;;;;;5.90;1.90;;;8.10;99.90;;;;;;5082461;28;20448;-71
2021/01/20 06:40:48;;;;;;;3.97;1.93;;;8.20;99.90;;;;;;5076722;28;20468;-70
2021/01/20 06:43:42;;;;;;;1.80;1.70;;;8.30;99.90;;;;;;5080760;28;20580;-70
2021/01/20 06:46:16;;;;;;;1.30;1.17;;;8.30;99.90;;;;;;5086176;28;20489;-70
2021/01/20 06:49:16;;;;;;;2.53;1.87;;;8.40;99.90;;;;;;5087821;28;20472;-71
2021/01/20 06:52:03;;;;;;;3.80;1.53;;;8.60;99.90;;;;;;5080969;28;20433;-71
2021/01/20 06:54:38;;;;;;;1.40;1.20;;;8.60;99.90;;;;;;5082703;28;20485;-72
2021/01/20 06:57:32;;;;;;;4.47;1.60;;;8.70;99.90;;;;;;5083105;28;20499;-71
2021/01/20 07:00:16;;;;;;;1.60;1.30;;;8.80;99.90;;;;;;5085488;28;20490;-71
2021/01/20 07:03:03;;;;;;;2.40;1.20;;;8.90;99.90;;;;;;5085452;28;20493;-70
2021/01/20 07:05:34;;;;;;;2.23;1.70;;;8.90;99.90;;;;;;5085536;28;20461;-71
2021/01/20 07:08:02;;;;;;;1.60;1.03;;;8.90;99.90;;;;;;5085447;28;20549;-72
2021/01/20 07:11:02;;;;;;;2.00;1.80;;;9.00;99.90;;;;;;5090142;28;20517;-71
2021/01/20 07:13:33;;;;;;;1.40;1.20;;;9.00;99.90;;;;;;5076866;28;20477;-72
2021/01/20 07:16:01;;;;;;;1.90;1.30;;;9.10;99.90;;;;;;5086359;28;21070;-71
2021/01/20 07:18:28;;;;;;;2.13;1.57;;;9.10;99.90;;;;;;5082014;28;20473;-70
2021/01/20 07:20:55;;;;;;;1.37;1.27;;;9.10;99.90;;;;;;5081409;28;20486;-70
2021/01/20 07:23:22;;;;;;;1.50;1.40;;;9.10;99.90;;;;;;5080241;28;20864;-72
2021/01/20 07:25:53;;;;;;;1.70;1.43;;;9.10;99.90;;;;;;5083960;28;20457;-72
2021/01/20 07:28:21;;;;;;;0.93;0.67;;;9.10;99.90;;;;;;5084454;28;20481;-71
2021/01/20 07:30:48;;;;;;;1.33;0.90;;;9.00;99.90;;;;;;5086514;28;21159;-71
2021/01/20 07:33:17;;;;;;;4.90;1.00;;;9.00;99.90;;;;;;5085547;28;20572;-72
2021/01/20 07:35:44;;;;;;;1.70;1.43;;;9.00;99.90;;;;;;5085771;28;20579;-72
2021/01/20 07:38:10;;;;;;;1.10;1.00;;;9.00;99.90;;;;;;5083988;28;20520;-71
2021/01/20 07:40:39;;;;;;;1.27;1.17;;;9.00;99.90;;;;;;5085384;28;20457;-70
2021/01/20 07:43:05;;;;;;;1.07;0.97;;;9.00;99.90;;;;;;5089231;28;20480;-71
2021/01/20 07:45:34;;;;;;;10.13;1.43;;;9.00;99.90;;;;;;5082035;28;20813;-72
2021/01/20 07:48:01;;;;;;;1.33;1.20;;;9.00;99.90;;;;;;5087647;28;20890;-71
2021/01/20 07:50:40;;;;;;;1.67;1.40;;;9.00;99.90;;;;;;5083477;28;20439;-70
2021/01/20 07:53:09;;;;;;;2.20;1.40;;;9.00;99.90;;;;;;5084750;28;20458;-73
2021/01/20 07:55:36;;;;;;;1.30;1.20;;;9.00;99.90;;;;;;5077935;28;20499;-71
2021/01/20 07:58:03;;;;;;;1.70;1.13;;;9.00;99.90;;;;;;5079540;28;20534;-73
2021/01/20 08:00:30;;;;;;;1.10;0.97;;;9.10;99.90;;;;;;5088133;28;20458;-71
2021/01/20 08:03:00;;;;;;;1.27;1.17;;;9.10;99.90;;;;;;5082992;28;20541;-71
2021/01/20 08:05:32;;;;;;;1.33;1.17;;;9.20;99.90;;;;;;5084275;28;20468;-72
2021/01/20 08:08:07;;;;;;;1.27;1.13;;;9.10;99.90;;;;;;5081084;28;20485;-71
2021/01/20 08:10:35;;;;;;;3.37;1.57;;;9.20;99.90;;;;;;5073498;28;20575;-71
2021/01/20 08:13:02;;;;;;;5.47;1.30;;;9.10;99.90;;;;;;5077298;28;20439;-71
2021/01/20 08:15:32;;;;;;;1.93;1.73;;;9.10;99.90;;;;;;5082489;28;20549;-71
2021/01/20 08:17:59;;;;;;;3.63;2.10;;;9.20;99.90;;;;;;5076013;28;20485;-73
2021/01/20 08:20:31;;;;;;;1.27;1.10;;;9.20;99.90;;;;;;5076417;28;20470;-71
2021/01/20 08:22:59;;;;;;;2.40;2.20;;;9.10;99.90;;;;;;5083065;28;20450;-71
2021/01/20 08:25:26;;;;;;;1.93;1.40;;;9.20;99.90;;;;;;5081454;28;20800;-70
2021/01/20 08:27:53;;;;;;;6.10;2.30;;;9.30;99.90;;;;;;5077155;28;21026;-70
2021/01/20 08:30:30;;;;;;;2.13;0.97;;;9.30;99.90;;;;;;5077647;28;20481;-70
2021/01/20 08:32:58;;;;;;;2.20;1.47;;;9.20;99.90;;;;;;5081467;28;20458;-71
2021/01/20 08:35:29;;;;;;;4.40;1.53;;;9.30;99.90;;;;;;5080473;28;20458;-72
2021/01/20 08:37:56;;;;;;;2.57;2.13;;;9.30;99.90;;;;;;5080907;28;20537;-70
2021/01/20 08:40:23;;;;;;;1.77;1.50;;;9.30;99.90;;;;;;5075330;28;20938;-71
2021/01/20 08:42:50;;;;;;;1.70;1.40;;;9.40;99.90;;;;;;5081256;28;20458;-70
2021/01/20 08:45:29;;;;;;;2.30;1.13;;;9.30;99.90;;;;;;5076587;28;20515;-71
2021/01/20 08:47:59;;;;;;;1.80;1.43;;;9.30;99.90;;;;;;5078890;28;20457;-71
2021/01/20 08:50:37;;;;;;;1.90;1.20;;;9.20;99.90;;;;;;5086250;28;20464;-70
2021/01/20 08:53:05;;;;;;;1.70;1.00;;;9.20;99.90;;;;;;5080693;28;20450;-71
2021/01/20 08:55:33;;;;;;;2.00;1.83;;;9.00;99.90;;;;;;5081211;28;20465;-70
2021/01/20 08:58:23;;;;;;;3.03;1.17;;;8.90;99.90;;;;;;5080223;28;20925;-70
2021/01/20 09:00:50;;;;;;;1.37;1.10;;;8.80;99.90;;;;;;5083956;28;20460;-70
2021/01/20 09:03:19;;;;;;;1.60;1.20;;;8.80;99.90;;;;;;5079120;28;20578;-71
2021/01/20 09:05:46;;;;;;;1.53;1.20;;;8.90;99.90;;;;;;5079684;28;20542;-70
2021/01/20 09:08:14;;;;;;;1.90;1.47;;;9.00;99.90;;;;;;5082699;28;20482;-70
2021/01/20 09:10:41;;;;;;;2.17;1.67;;;9.10;99.90;;;;;;5077858;28;20507;-70
2021/01/20 09:13:08;;;;;;;2.03;1.73;;;9.30;99.90;;;;;;5075527;28;20515;-70
2021/01/20 09:15:35;;;;;;;1.50;1.40;;;9.40;99.90;;;;;;5077979;28;21024;-71
2021/01/20 09:18:02;;;;;;;1.40;1.20;;;9.50;99.90;;;;;;5077181;28;22842;-70
2021/01/20 09:20:28;;;;;;;1.60;1.13;;;9.40;99.90;;;;;;5085171;28;20462;-70
2021/01/20 09:22:55;;;;;;;3.00;2.27;;;9.50;99.90;;;;;;5072329;28;20791;-72
2021/01/20 09:25:22;;;;;;;2.90;1.60;;;9.40;99.90;;;;;;5081195;28;20493;-70
2021/01/20 09:27:48;;;;;;;1.40;1.30;;;9.40;99.90;;;;;;5073362;28;20513;-71
2021/01/20 09:30:16;;;;;;;1.30;1.17;;;9.70;99.90;;;;;;5089401;28;20455;-72
2021/01/20 09:32:43;;;;;;;1.17;1.03;;;9.80;99.90;;;;;;5082020;28;20503;-72
2021/01/20 09:35:12;;;;;;;2.17;1.47;;;9.80;99.90;;;;;;5077761;28;20461;-70
2021/01/20 09:37:39;;;;;;;2.43;2.17;;;9.60;99.90;;;;;;5074349;28;20487;-70
2021/01/20 09:40:08;;;;;;;1.20;1.10;;;9.80;99.90;;;;;;5078394;28;20466;-71
2021/01/20 09:42:35;;;;;;;2.63;1.73;;;9.90;99.90;;;;;;5081743;28;20469;-70
2021/01/20 09:45:02;;;;;;;1.70;1.33;;;9.80;99.90;;;;;;5082618;28;20614;-71
2021/01/20 09:47:29;;;;;;;3.80;2.00;;;9.60;99.90;;;;;;5080508;28;20493;-71
2021/01/20 09:49:57;;;;;;;1.93;1.73;;;9.40;99.90;;;;;;5066762;28;20461;-71
2021/01/20 09:52:25;;;;;;;1.87;1.60;;;9.50;99.90;;;;;;5082092;28;20865;-70
2021/01/20 09:54:54;;;;;;;2.07;1.87;;;9.60;99.90;;;;;;5078978;28;20486;-70
2021/01/20 09:57:21;;;;;;;1.50;1.33;;;9.50;99.90;;;;;;5071933;28;20524;-70
2021/01/20 09:59:48;;;;;;;2.23;1.60;;;9.60;99.90;;;;;;5082291;28;20452;-71
2021/01/20 10:02:15;;;;;;;0.97;0.70;;;9.60;99.90;;;;;;5089072;28;20454;-70
2021/01/20 10:04:42;;;;;;;1.93;1.37;;;10.00;99.90;;;;;;5077408;28;20586;-71
2021/01/20 10:07:10;;;;;;;2.43;2.23;;;10.40;99.90;;;;;;5079341;28;20436;-71
2021/01/20 10:09:38;;;;;;;1.63;1.53;;;11.00;99.90;;;;;;5082479;28;20827;-71
2021/01/20 10:12:05;;;;;;;1.57;1.40;;;11.30;99.90;;;;;;5081502;28;20521;-68
2021/01/20 10:14:32;;;;;;;3.57;1.60;;;11.30;99.90;;;;;;5080839;28;20486;-70
2021/01/20 10:16:59;;;;;;;3.03;2.40;;;10.90;99.90;;;;;;5079625;28;21037;-71
2021/01/20 10:19:25;;;;;;;1.40;1.30;;;10.50;99.90;;;;;;5077307;28;20476;-70
2021/01/20 10:21:52;;;;;;;3.03;1.60;;;10.50;99.90;;;;;;5083887;28;20468;-70
2021/01/20 10:24:19;;;;;;;5.33;1.87;;;10.90;99.90;;;;;;5081026;28;23774;-71
2021/01/20 10:26:46;;;;;;;1.70;1.50;;;11.70;99.90;;;;;;5080019;28;20536;-70
2021/01/20 10:29:13;;;;;;;2.60;1.20;;;12.30;99.90;;;;;;5080756;28;20474;-71
2021/01/20 10:31:41;;;;;;;1.93;1.53;;;12.00;99.90;;;;;;5079803;28;20466;-71
2021/01/20 10:34:10;;;;;;;2.50;1.77;;;11.60;99.90;;;;;;5083003;28;20484;-70
2021/01/20 10:36:37;;;;;;;2.80;1.47;;;11.30;99.90;;;;;;5081411;28;20946;-70
2021/01/20 10:39:05;;;;;;;3.37;2.20;;;10.80;99.90;;;;;;5082597;28;20497;-69
2021/01/20 10:41:33;;;;;;;7.00;2.53;;;10.50;99.90;;;;;;5077904;28;20805;-70
2021/01/20 10:44:00;;;;;;;2.47;1.90;;;10.30;99.90;;;;;;5076997;28;20827;-71
2021/01/20 10:46:27;;;;;;;2.73;1.77;;;10.30;99.90;;;;;;5070469;28;20474;-70
2021/01/20 10:48:55;;;;;;;2.80;1.90;;;10.30;99.90;;;;;;5079078;28;20496;-70
2021/01/20 10:51:22;;;;;;;2.20;1.37;;;10.40;99.90;;;;;;5077851;28;20454;-70
2021/01/20 10:53:49;;;;;;;2.23;1.93;;;10.60;99.90;;;;;;5073607;28;20568;-71
2021/01/20 10:56:16;;;;;;;2.13;1.73;;;10.90;99.90;;;;;;5076191;28;20545;-71
2021/01/20 10:58:43;;;;;;;1.10;0.90;;;11.40;99.90;;;;;;5082783;28;20531;-71
2021/01/20 11:01:11;;;;;;;2.40;2.20;;;12.20;99.90;;;;;;5071817;28;21180;-71
2021/01/20 11:03:39;;;;;;;2.43;1.67;;;12.40;99.90;;;;;;5074562;28;20480;-71
2021/01/20 11:06:06;;;;;;;2.03;1.33;;;12.70;99.90;;;;;;5085267;28;20883;-71
2021/01/20 11:08:35;;;;;;;1.70;1.40;;;13.00;99.90;;;;;;5084904;28;20473;-70
2021/01/20 11:11:02;;;;;;;2.33;1.93;;;13.60;99.90;;;;;;5074749;28;20545;-71
2021/01/20 11:13:29;;;;;;;2.13;1.93;;;13.30;99.90;;;;;;5080755;28;20497;-71
2021/01/20 11:15:57;;;;;;;4.23;3.43;;;12.70;99.90;;;;;;5076120;28;20466;-70
2021/01/20 11:18:25;;;;;;;3.20;1.37;;;12.20;99.90;;;;;;5079608;28;20479;-69
2021/01/20 11:20:51;;;;;;;4.93;1.63;;;12.10;99.90;;;;;;5088759;28;20857;-70
2021/01/20 11:23:18;;;;;;;4.00;2.50;;;12.00;99.90;;;;;;5071647;28;20516;-70
2021/01/20 11:25:46;;;;;;;1.90;1.30;;;11.70;99.90;;;;;;5080493;28;20461;-70
2021/01/20 11:28:14;;;;;;;4.00;1.67;;;11.40;99.90;;;;;;5082161;28;20485;-70
2021/01/20 11:30:40;;;;;;;2.67;1.70;;;11.60;99.90;;;;;;5083798;28;20465;-70
2021/01/20 11:33:08;;;;;;;1.87;1.53;;;12.00;99.90;;;;;;5084316;28;20545;-70
2021/01/20 11:35:35;;;;;;;2.13;1.90;;;12.30;99.90;;;;;;5081205;28;20570;-71
2021/01/20 11:38:02;;;;;;;1.90;1.50;;;13.00;99.90;;;;;;5087005;28;20496;-70
2021/01/20 11:40:30;;;;;;;1.90;1.10;;;13.50;99.90;;;;;;5085135;28;20469;-70
2021/01/20 11:42:57;;;;;;;4.00;2.87;;;13.60;99.90;;;;;;5080223;28;20502;-70
2021/01/20 11:45:26;;;;;;;3.20;2.00;;;13.10;99.90;;;;;;5077852;28;20446;-71
2021/01/20 11:47:53;;;;;;;2.90;1.20;;;12.80;99.90;;;;;;5088137;28;20474;-70
2021/01/20 11:50:21;;;;;;;2.47;1.87;;;12.70;99.90;;;;;;5081067;28;21133;-69
2021/01/20 11:52:48;;;;;;;1.30;1.20;;;12.40;99.90;;;;;;5085219;28;20454;-69
2021/01/20 11:55:15;;;;;;;2.50;1.93;;;12.00;99.90;;;;;;5081039;28;20539;-70
2021/01/20 11:57:42;;;;;;;2.47;1.77;;;11.80;99.90;;;;;;5089367;28;20513;-70
2021/01/20 12:00:10;;;;;;;4.30;1.90;;;11.70;99.90;;;;;;5081091;28;20509;-70
2021/01/20 12:02:37;;;;;;;2.70;1.40;;;11.70;99.90;;;;;;5078693;28;20458;-71
2021/01/20 12:05:05;;;;;;;2.70;2.30;;;11.70;99.90;;;;;;5077922;28;20450;-69
2021/01/20 12:07:33;;;;;;;3.00;1.90;;;11.60;99.90;;;;;;5080238;28;20570;-70
2021/01/20 12:09:59;;;;;;;2.37;1.40;;;11.80;99.90;;;;;;5076845;28;20880;-70
2021/01/20 12:12:26;;;;;;;1.40;1.23;;;11.60;99.90;;;;;;5075984;28;20973;-70
2021/01/20 12:14:53;;;;;;;4.73;1.43;;;11.60;99.90;;;;;;5079851;28;20489;-70
2021/01/20 12:17:20;;;;;;;1.93;1.67;;;11.60;99.90;;;;;;5087468;28;20490;-70
2021/01/20 12:19:46;;;;;;;2.30;1.80;;;11.50;99.90;;;;;;5078192;28;20482;-70
2021/01/20 12:22:13;;;;;;;4.23;2.07;;;11.60;99.90;;;;;;5081800;28;20465;-71
2021/01/20 12:24:42;;;;;;;2.83;1.87;;;11.70;99.90;;;;;;5074688;28;20454;-70
2021/01/20 12:27:09;;;;;;;3.13;1.50;;;11.70;99.90;;;;;;5083153;28;20453;-71
2021/01/20 12:29:36;;;;;;;1.60;1.27;;;11.60;99.90;;;;;;5085975;28;20461;-69
2021/01/20 12:32:02;;;;;;;1.50;1.30;;;11.60;99.90;;;;;;5079264;28;20472;-70
2021/01/20 12:34:29;;;;;;;1.53;1.30;;;11.50;99.90;;;;;;5081550;28;20539;-69
2021/01/20 12:36:56;;;;;;;2.07;1.63;;;11.50;99.90;;;;;;5085083;28;20501;-69
2021/01/20 12:39:22;;;;;;;1.90;1.70;;;11.50;99.90;;;;;;5083637;28;21111;-69
2021/01/20 12:41:51;;;;;;;1.73;1.40;;;11.60;99.90;;;;;;5081193;28;21140;-70
2021/01/20 12:44:18;;;;;;;1.10;1.00;;;11.80;99.90;;;;;;5076018;28;20498;-70
2021/01/20 12:46:45;;;;;;;3.03;2.63;;;11.90;99.90;;;;;;5079288;28;20464;-70
2021/01/20 12:49:11;;;;;;;2.10;1.80;;;12.00;99.90;;;;;;5075121;28;20994;-69
2021/01/20 12:51:38;;;;;;;4.30;2.10;;;12.50;99.90;;;;;;5086827;28;20870;-70
2021/01/20 12:54:05;;;;;;;3.33;2.33;;;12.90;99.90;;;;;;5078633;28;20573;-70
2021/01/20 12:56:32;;;;;;;4.50;1.60;;;12.90;99.90;;;;;;5080921;28;20501;-70
2021/01/20 12:58:59;;;;;;;4.57;2.20;;;12.80;99.90;;;;;;5087526;28;20533;-70
2021/01/20 13:01:26;;;;;;;3.57;2.13;;;12.70;99.90;;;;;;5079761;28;20461;-70
2021/01/20 13:03:52;;;;;;;1.20;0.90;;;12.40;99.90;;;;;;5077394;28;20477;-70